createdAt,value
2019-04-22T00:00:10.782Z,24.07
2019-04-22T00:02:43.548Z,23.40
2019-04-22T00:05:19.231Z,21.93
2019-04-22T00:08:02.781Z,22.73
2019-04-22T00:10:33.214Z,21.87
2019-04-22T00:13:01.386Z,21.33
2019-04-22T00:15:26.106Z,20.02
2019-04-22T00:20:30.823Z,18.35
2019-04-22T00:22:58.083Z,18.45
2019-04-22T00:25:34.714Z,18.27
2019-04-22T00:28:02.391Z,18.85
2019-04-22T00:30:47.186Z,18.67
2019-04-22T00:33:03.353Z,18.32
2019-04-22T00:35:33.208Z,18.00
2019-04-22T00:38:11.505Z,17.62
2019-04-22T00:40:33.986Z,16.97
2019-04-22T00:42:58.760Z,17.10
2019-04-22T00:45:36.204Z,16.17
2019-04-22T00:48:09.265Z,18.42
2019-04-22T00:50:55.472Z,18.40
2019-04-22T00:53:08.996Z,18.27
2019-04-22T00:55:32.210Z,19.70
2019-04-22T00:58:05.208Z,20.30
2019-04-22T01:00:40.625Z,19.15
2019-04-22T01:03:11.444Z,18.60
2019-04-22T01:05:38.762Z,18.30
2019-04-22T01:08:10.892Z,17.67
2019-04-22T01:10:32.183Z,19.92
2019-04-22T01:13:04.808Z,20.43
2019-04-22T01:15:34.396Z,19.27
2019-04-22T01:18:02.471Z,18.12
2019-04-22T01:22:58.943Z,19.37
2019-04-22T01:25:24.872Z,19.98
2019-04-22T01:27:54.703Z,22.00
2019-04-22T01:30:17.201Z,23.10
2019-04-22T01:32:41.870Z,26.10
2019-04-22T01:35:19.706Z,27.73
2019-04-22T01:37:54.698Z,26.90
2019-04-22T01:40:39.073Z,25.68
2019-04-22T01:43:07.247Z,24.55
2019-04-22T01:45:33.316Z,24.57
2019-04-22T01:48:02.889Z,24.10
2019-04-22T01:50:32.041Z,22.17
2019-04-22T01:53:06.468Z,21.37
2019-04-22T01:55:31.369Z,20.95
2019-04-22T01:57:53.618Z,21.97
2019-04-22T02:00:36.037Z,22.93
2019-04-22T02:03:08.272Z,23.73
2019-04-22T02:05:53.618Z,23.40
2019-04-22T02:08:09.691Z,23.55
2019-04-22T02:13:01.492Z,22.77
2019-04-22T02:15:32.906Z,21.17
2019-04-22T02:18:03.317Z,21.68
2019-04-22T02:20:31.102Z,22.25
2019-04-22T02:26:02.495Z,22.20
2019-04-22T02:31:23.206Z,16.27
2019-04-22T02:41:21.013Z,17.60
2019-04-22T02:46:13.540Z,17.62
2019-04-22T02:48:49.792Z,17.05
2019-04-22T02:51:02.135Z,15.88
2019-04-22T02:53:58.995Z,15.50
2019-04-22T02:56:01.699Z,11.57
2019-04-22T02:58:41.169Z,11.55
2019-04-22T03:01:01.395Z,11.43
2019-04-22T03:03:48.025Z,13.70
2019-04-22T03:08:25.239Z,15.28
2019-04-22T03:13:34.465Z,17.95
2019-04-22T03:15:59.580Z,18.15
2019-04-22T03:18:35.462Z,17.77
2019-04-22T03:21:07.766Z,15.88
2019-04-22T03:23:36.811Z,16.50
2019-04-22T03:28:19.810Z,13.75
2019-04-22T03:31:34.254Z,12.00
2019-04-22T03:34:15.393Z,12.15
2019-04-22T03:36:55.634Z,12.88
2019-04-22T03:39:24.850Z,12.85
2019-04-22T03:41:27.212Z,13.13
2019-04-22T03:43:54.139Z,14.40
2019-04-22T03:46:13.915Z,15.13
2019-04-22T03:48:45.460Z,14.33
2019-04-22T03:51:33.907Z,15.63
2019-04-22T03:56:18.821Z,12.25
2019-04-22T03:58:52.284Z,12.60
2019-04-22T04:03:39.528Z,12.30
2019-04-22T04:06:06.721Z,12.25
2019-04-22T04:08:57.284Z,13.13
2019-04-22T04:11:14.651Z,11.83
2019-04-22T04:13:33.488Z,12.40
2019-04-22T04:16:07.423Z,14.20
2019-04-22T04:18:42.497Z,13.32
2019-04-22T04:21:14.585Z,13.72
2019-04-22T04:23:37.962Z,13.22
2019-04-22T04:25:52.575Z,14.23
2019-04-22T04:31:09.949Z,14.47
2019-04-22T04:33:36.238Z,14.58
2019-04-22T04:35:58.727Z,13.75
2019-04-22T04:38:24.316Z,13.62
2019-04-22T04:43:30.028Z,17.35
2019-04-22T04:48:21.031Z,18.35
2019-04-22T04:51:00.395Z,16.67
2019-04-22T04:53:28.120Z,16.48
2019-04-22T04:55:47.004Z,18.70
2019-04-22T04:58:27.504Z,19.07
2019-04-22T05:03:23.342Z,23.00
2019-04-22T05:05:41.575Z,22.98
2019-04-22T05:08:15.099Z,24.05
2019-04-22T05:10:53.775Z,21.62
2019-04-22T05:13:12.295Z,18.70
2019-04-22T05:15:57.633Z,20.30
2019-04-22T05:18:14.924Z,17.52
2019-04-22T05:20:53.403Z,17.57
2019-04-22T05:23:03.248Z,23.35
2019-04-22T05:25:27.292Z,20.43
2019-04-22T05:27:59.062Z,19.48
2019-04-22T05:30:35.869Z,17.77
2019-04-22T05:33:02.985Z,18.27
2019-04-22T05:35:31.154Z,16.60
2019-04-22T05:40:28.325Z,15.63
2019-04-22T05:43:02.538Z,15.78
2019-04-22T05:45:42.988Z,14.68
2019-04-22T05:50:27.211Z,15.20
2019-04-22T05:53:13.221Z,16.07
2019-04-22T05:55:36.066Z,14.90
2019-04-22T05:58:02.491Z,15.35
2019-04-22T06:01:00.039Z,16.23
2019-04-22T06:03:06.777Z,15.80
2019-04-22T06:08:02.118Z,16.62
2019-04-22T06:10:39.303Z,17.30
2019-04-22T06:12:59.535Z,19.17
2019-04-22T06:15:29.076Z,16.77
2019-04-22T06:18:09.590Z,16.57
2019-04-22T06:20:36.981Z,15.95
2019-04-22T06:23:04.514Z,14.30
2019-04-22T06:25:51.402Z,13.65
2019-04-22T06:28:05.417Z,15.70
2019-04-22T06:30:28.387Z,16.48
2019-04-22T06:33:01.155Z,17.42
2019-04-22T06:38:19.261Z,20.30
2019-04-22T06:40:31.712Z,21.37
2019-04-22T06:43:03.434Z,21.48
2019-04-22T06:45:30.564Z,18.45
2019-04-22T06:50:38.260Z,16.00
2019-04-22T06:55:40.154Z,16.37
2019-04-22T06:58:00.375Z,19.40
2019-04-22T07:00:35.057Z,19.95
2019-04-22T07:05:32.792Z,24.77
2019-04-22T07:08:14.358Z,25.75
2019-04-22T07:10:35.180Z,22.22
2019-04-22T07:13:03.944Z,22.45
2019-04-22T07:15:46.438Z,24.05
2019-04-22T07:18:03.042Z,26.17
2019-04-22T07:20:30.418Z,29.35
2019-04-22T07:23:06.782Z,24.32
2019-04-22T07:25:30.919Z,29.15
2019-04-22T07:28:00.988Z,26.05
2019-04-22T07:30:35.585Z,21.48
2019-04-22T07:33:15.130Z,19.17
2019-04-22T07:35:41.176Z,18.65
2019-04-22T07:38:07.005Z,19.05
2019-04-22T07:40:37.405Z,21.12
2019-04-22T07:43:09.126Z,18.23
2019-04-22T07:48:15.316Z,16.62
2019-04-22T07:50:43.115Z,17.27
2019-04-22T07:53:02.223Z,16.90
2019-04-22T07:55:29.463Z,16.97
2019-04-22T07:58:00.856Z,16.60
2019-04-22T08:00:34.293Z,16.60
2019-04-22T08:03:06.627Z,17.00
2019-04-22T08:05:35.899Z,18.48
2019-04-22T08:08:10.973Z,18.70
2019-04-22T08:10:38.069Z,19.37
2019-04-22T08:13:05.684Z,16.23
2019-04-22T08:15:33.364Z,17.98
2019-04-22T08:18:17.762Z,15.58
2019-04-22T08:20:33.908Z,16.57
2019-04-22T08:25:31.557Z,15.85
2019-04-22T08:28:05.411Z,16.80
2019-04-22T08:33:13.692Z,17.92
2019-04-22T08:35:55.175Z,15.90
2019-04-22T08:38:10.342Z,17.80
2019-04-22T08:40:45.307Z,17.48
2019-04-22T08:43:14.383Z,17.92
2019-04-22T08:45:43.033Z,18.25
2019-04-22T08:48:01.024Z,22.70
2019-04-22T08:50:33.695Z,19.42
2019-04-22T08:53:09.417Z,20.02
2019-04-22T08:55:38.587Z,18.98
2019-04-22T09:00:37.354Z,22.37
2019-04-22T09:03:04.630Z,19.95
2019-04-22T09:08:09.084Z,15.98
2019-04-22T09:10:31.368Z,16.12
2019-04-22T09:13:01.017Z,16.40
2019-04-22T09:15:30.396Z,15.05
2019-04-22T09:18:02.365Z,16.02
2019-04-22T09:20:32.480Z,18.12
2019-04-22T09:23:02.662Z,16.57
2019-04-22T09:25:29.873Z,13.83
2019-04-22T09:27:59.326Z,11.85
2019-04-22T09:30:43.313Z,11.65
2019-04-22T09:33:09.953Z,10.05
2019-04-22T09:38:16.960Z,10.68
2019-04-22T09:40:28.967Z,10.23
2019-04-22T09:43:17.000Z,9.90
2019-04-22T09:45:31.080Z,8.60
2019-04-22T09:48:08.743Z,9.40
2019-04-22T09:50:36.834Z,9.68
2019-04-22T09:53:04.929Z,9.38
2019-04-22T09:55:32.848Z,9.53
2019-04-22T09:58:03.079Z,10.08
2019-04-22T10:00:39.427Z,10.72
2019-04-22T10:03:10.026Z,10.32
2019-04-22T10:05:35.728Z,10.20
2019-04-22T10:08:14.463Z,9.45
2019-04-22T10:10:35.445Z,9.58
2019-04-22T10:13:10.512Z,8.30
2019-04-22T10:15:33.766Z,9.20
2019-04-22T10:18:04.159Z,8.73
2019-04-22T10:20:31.607Z,8.43
2019-04-22T10:22:57.709Z,9.23
2019-04-22T10:25:29.845Z,7.95
2019-04-22T10:28:11.517Z,8.18
2019-04-22T10:30:38.391Z,7.95
2019-04-22T10:33:00.807Z,7.92
2019-04-22T10:35:15.550Z,8.15
2019-04-22T10:37:38.855Z,7.17
2019-04-22T10:40:13.673Z,14.70
2019-04-22T10:42:43.159Z,18.30
2019-04-22T10:45:12.381Z,19.07
2019-04-22T10:47:40.388Z,22.35
2019-04-22T10:50:10.302Z,22.98
2019-04-22T10:52:37.389Z,18.62
2019-04-22T10:55:09.575Z,24.95
2019-04-22T10:57:36.957Z,31.52
2019-04-22T11:00:09.327Z,17.15
2019-04-22T11:02:37.215Z,23.85
2019-04-22T11:05:06.200Z,31.95
2019-04-22T11:07:41.606Z,31.07
2019-04-22T11:10:22.378Z,32.42
2019-04-22T11:12:37.533Z,16.37
2019-04-22T11:15:05.600Z,17.65
2019-04-22T11:17:33.526Z,10.60
2019-04-22T11:20:01.901Z,7.95
2019-04-22T11:22:33.185Z,9.80
2019-04-22T11:24:59.848Z,9.10
2019-04-22T11:27:27.013Z,10.58
2019-04-22T11:29:55.386Z,6.25
2019-04-22T11:32:22.651Z,6.28
2019-04-22T11:34:51.111Z,6.00
2019-04-22T11:37:18.593Z,5.47
2019-04-22T11:39:50.637Z,5.30
2019-04-22T11:42:16.337Z,5.12
2019-04-22T11:44:43.515Z,5.45
2019-04-22T11:47:11.783Z,6.50
2019-04-22T11:49:41.642Z,5.50
2019-04-22T11:52:12.120Z,5.17
2019-04-22T11:54:38.878Z,6.65
2019-04-22T11:57:07.379Z,5.70
2019-04-22T11:59:34.510Z,5.80
2019-04-22T12:02:02.536Z,5.10
2019-04-22T12:04:29.979Z,4.17
2019-04-22T12:06:57.953Z,4.17
2019-04-22T12:09:25.776Z,3.72
2019-04-22T12:11:53.869Z,3.77
2019-04-22T12:14:22.236Z,3.70
2019-04-22T12:16:49.795Z,3.98
2019-04-22T12:19:18.849Z,3.00
2019-04-22T12:21:46.823Z,3.30
2019-04-22T12:24:15.191Z,2.72
2019-04-22T12:26:42.496Z,3.12
2019-04-22T12:29:13.238Z,2.77
2019-04-22T12:31:41.902Z,2.52
2019-04-22T12:34:09.255Z,4.10
2019-04-22T12:36:36.440Z,3.67
2019-04-22T12:39:07.640Z,3.20
2019-04-22T12:41:35.953Z,3.08
2019-04-22T12:44:05.211Z,2.70
2019-04-22T12:46:33.936Z,2.27
2019-04-22T12:49:02.355Z,2.50
2019-04-22T12:51:31.174Z,2.85
2019-04-22T12:53:59.412Z,2.62
2019-04-22T12:56:27.863Z,2.95
2019-04-22T12:58:55.899Z,2.50
2019-04-22T13:01:24.551Z,3.25
2019-04-22T13:03:52.119Z,2.42
2019-04-22T13:06:19.496Z,2.55
2019-04-22T13:08:47.684Z,2.47
2019-04-22T13:11:18.506Z,2.70
2019-04-22T13:13:45.137Z,2.50
2019-04-22T13:16:13.359Z,2.35
2019-04-22T13:18:49.287Z,2.47
2019-04-22T13:21:10.871Z,1.98
2019-04-22T13:23:39.038Z,1.75
2019-04-22T13:26:07.424Z,1.72
2019-04-22T13:28:34.733Z,2.08
2019-04-22T13:31:03.406Z,1.87
2019-04-22T13:33:30.842Z,2.33
2019-04-22T13:35:59.572Z,2.12
2019-04-22T13:38:27.023Z,1.70
2019-04-22T13:41:07.175Z,1.85
2019-04-22T13:43:23.151Z,2.00
2019-04-22T13:45:50.208Z,1.80
2019-04-22T13:48:38.658Z,1.90
2019-04-22T13:51:18.592Z,1.70
2019-04-22T13:56:07.595Z,1.90
2019-04-22T13:58:30.207Z,1.77
2019-04-22T14:00:44.694Z,2.92
2019-04-22T14:03:16.171Z,1.75
2019-04-22T14:05:46.758Z,1.70
2019-04-22T14:08:14.619Z,2.10
2019-04-22T14:10:43.075Z,2.58
2019-04-22T14:13:10.124Z,2.05
2019-04-22T14:15:38.064Z,1.65
2019-04-22T14:18:07.279Z,1.80
2019-04-22T14:20:36.599Z,1.67
2019-04-22T14:23:05.988Z,1.57
2019-04-22T14:25:34.500Z,1.52
2019-04-22T14:28:06.108Z,1.32
2019-04-22T14:30:30.865Z,1.47
2019-04-22T14:32:58.038Z,1.32
2019-04-22T14:35:25.275Z,1.50
2019-04-22T14:37:52.377Z,1.62
2019-04-22T14:40:22.039Z,1.80
2019-04-22T14:43:10.679Z,1.65
2019-04-22T14:45:52.190Z,1.52
2019-04-22T14:48:11.025Z,1.75
2019-04-22T14:50:42.266Z,1.60
2019-04-22T14:53:07.827Z,3.05
2019-04-22T14:55:23.120Z,3.30
2019-04-22T14:57:46.902Z,1.80
2019-04-22T15:00:17.920Z,1.80
2019-04-22T15:02:46.037Z,1.90
2019-04-22T15:05:16.378Z,2.12
2019-04-22T15:07:44.564Z,1.40
2019-04-22T15:10:13.713Z,2.02
2019-04-22T15:12:46.026Z,3.08
2019-04-22T15:15:27.147Z,2.65
2019-04-22T15:18:00.886Z,2.80
2019-04-22T15:20:48.619Z,2.17
2019-04-22T15:23:14.809Z,2.42
2019-04-22T15:25:42.423Z,2.00
2019-04-22T15:28:09.547Z,2.00
2019-04-22T15:30:37.411Z,1.98
2019-04-22T15:33:05.534Z,2.27
2019-04-22T15:35:33.622Z,2.08
2019-04-22T15:38:01.494Z,1.92
2019-04-22T15:40:28.993Z,1.80
2019-04-22T15:42:56.977Z,1.92
2019-04-22T15:45:25.903Z,1.90
2019-04-22T15:47:53.141Z,2.50
2019-04-22T15:50:20.704Z,2.35
2019-04-22T15:52:51.336Z,2.47
2019-04-22T15:55:16.534Z,1.87
2019-04-22T15:57:43.992Z,2.02
2019-04-22T16:00:25.158Z,2.22
2019-04-22T16:02:43.748Z,2.05
2019-04-22T16:05:11.011Z,2.30
2019-04-22T16:07:37.991Z,2.70
2019-04-22T16:10:08.229Z,2.30
2019-04-22T16:12:44.125Z,2.55
2019-04-22T16:15:07.523Z,2.35
2019-04-22T16:17:36.865Z,2.15
2019-04-22T16:20:05.199Z,2.60
2019-04-22T16:22:34.499Z,2.87
2019-04-22T16:25:19.398Z,2.72
2019-04-22T16:27:46.395Z,3.50
2019-04-22T16:30:14.998Z,2.80
2019-04-22T16:32:43.355Z,3.35
2019-04-22T16:35:10.632Z,6.62
2019-04-22T16:37:38.838Z,4.12
2019-04-22T16:40:07.225Z,3.72
2019-04-22T16:42:43.277Z,6.28
2019-04-22T16:45:05.537Z,3.92
2019-04-22T16:47:33.345Z,4.70
2019-04-22T16:50:01.809Z,4.08
2019-04-22T16:52:30.260Z,4.42
2019-04-22T16:54:58.956Z,4.20
2019-04-22T16:57:26.204Z,3.83
2019-04-22T16:59:53.241Z,4.12
2019-04-22T17:02:22.462Z,3.75
2019-04-22T17:04:51.725Z,5.12
2019-04-22T17:07:20.336Z,5.40
2019-04-22T17:09:48.018Z,5.65
2019-04-22T17:12:16.180Z,3.22
2019-04-22T17:14:50.409Z,3.47
2019-04-22T17:17:12.847Z,5.67
2019-04-22T17:19:39.832Z,5.92
2019-04-22T17:22:07.900Z,5.20
2019-04-22T17:24:35.449Z,5.65
2019-04-22T17:27:04.429Z,5.62
2019-04-22T17:29:32.429Z,5.33
2019-04-22T17:32:06.690Z,4.97
2019-04-22T17:34:29.534Z,4.50
2019-04-22T17:36:57.251Z,4.40
2019-04-22T17:39:35.694Z,5.22
2019-04-22T17:42:11.211Z,5.00
2019-04-22T17:44:54.304Z,5.97
2019-04-22T17:47:04.554Z,6.28
2019-04-22T17:49:50.293Z,5.50
2019-04-22T17:52:32.614Z,5.12
2019-04-22T17:54:48.027Z,5.53
2019-04-22T17:57:19.198Z,5.78
2019-04-22T17:59:44.772Z,5.72
2019-04-22T18:02:09.670Z,5.80
2019-04-22T18:04:29.101Z,4.75
2019-04-22T18:07:18.370Z,5.53
2019-04-22T18:10:14.052Z,5.40
2019-04-22T18:12:22.395Z,8.70
2019-04-22T18:14:59.538Z,6.87
2019-04-22T18:17:11.516Z,9.25
2019-04-22T18:19:36.641Z,13.45
2019-04-22T18:22:00.841Z,9.23
2019-04-22T18:24:26.533Z,9.35
2019-04-22T18:27:18.953Z,7.87
2019-04-22T18:29:35.948Z,7.58
2019-04-22T18:31:54.461Z,7.83
2019-04-22T18:34:26.655Z,8.18
2019-04-22T18:37:01.693Z,8.20
2019-04-22T18:39:36.358Z,7.65
2019-04-22T18:41:58.599Z,8.58
2019-04-22T18:44:31.103Z,7.65
2019-04-22T18:46:58.140Z,7.60
2019-04-22T18:49:29.500Z,6.87
2019-04-22T18:52:04.458Z,7.30
2019-04-22T18:54:45.793Z,6.53
2019-04-22T18:57:16.040Z,7.78
2019-04-22T18:59:33.832Z,8.58
2019-04-22T19:02:03.772Z,7.92
2019-04-22T19:04:37.960Z,7.15
2019-04-22T19:07:23.977Z,8.80
2019-04-22T19:09:59.766Z,7.92
2019-04-22T19:12:33.777Z,7.53
2019-04-22T19:14:49.938Z,7.87
2019-04-22T19:17:24.985Z,8.20
2019-04-22T19:19:46.302Z,9.30
2019-04-22T19:22:07.663Z,9.38
2019-04-22T19:24:34.463Z,9.95
2019-04-22T19:27:12.511Z,6.87
2019-04-22T19:29:36.843Z,6.53
2019-04-22T19:32:09.747Z,7.80
2019-04-22T19:34:36.898Z,9.63
2019-04-22T19:37:03.420Z,9.38
2019-04-22T19:39:33.105Z,7.08
2019-04-22T19:42:12.470Z,7.28
2019-04-22T19:44:36.261Z,6.28
2019-04-22T19:47:19.588Z,6.70
2019-04-22T19:49:42.707Z,7.97
2019-04-22T19:52:05.157Z,7.85
2019-04-22T19:54:27.745Z,7.28
2019-04-22T19:56:47.323Z,6.37
2019-04-22T19:59:16.381Z,7.97
2019-04-22T20:01:55.354Z,7.60
2019-04-22T20:04:41.653Z,6.78
2019-04-22T20:06:56.385Z,6.55
2019-04-22T20:09:31.605Z,6.92
2019-04-22T20:11:59.628Z,6.90
2019-04-22T20:14:28.062Z,7.62
2019-04-22T20:16:48.717Z,7.53
2019-04-22T20:19:31.914Z,6.50
2019-04-22T20:21:59.985Z,6.65
2019-04-22T20:24:12.325Z,7.30
2019-04-22T20:26:59.434Z,7.65
2019-04-22T20:29:25.754Z,7.37
2019-04-22T20:31:53.063Z,9.48
2019-04-22T20:34:28.333Z,10.95
2019-04-22T20:39:10.884Z,42.25
2019-04-22T20:41:43.314Z,38.25
2019-04-22T20:44:15.977Z,20.92
2019-04-22T20:46:44.060Z,19.37
2019-04-22T20:49:11.730Z,10.48
2019-04-22T20:51:53.639Z,8.30
2019-04-22T20:54:12.334Z,8.50
2019-04-22T20:56:42.476Z,8.70
2019-04-22T20:59:08.189Z,8.20
2019-04-22T21:01:39.735Z,8.10
2019-04-22T21:03:53.563Z,8.73
2019-04-22T21:06:36.882Z,7.78
2019-04-22T21:09:08.869Z,7.95
2019-04-22T21:11:37.134Z,7.97
2019-04-22T21:14:04.263Z,12.80
2019-04-22T21:16:35.109Z,7.95
2019-04-22T21:18:57.820Z,9.15
2019-04-22T21:21:35.885Z,8.30
2019-04-22T21:23:52.904Z,7.53
2019-04-22T21:26:27.443Z,5.95
2019-04-22T21:28:53.585Z,7.67
2019-04-22T21:31:32.362Z,5.83
2019-04-22T21:33:50.284Z,5.28
2019-04-22T21:36:30.156Z,7.05
2019-04-22T21:38:53.033Z,6.12
2019-04-22T21:41:20.371Z,6.17
2019-04-22T21:43:54.790Z,6.53
2019-04-22T21:46:19.302Z,6.15
2019-04-22T21:48:46.200Z,4.35
2019-04-22T21:51:18.787Z,4.45
2019-04-22T21:53:58.758Z,5.47
2019-04-22T21:58:52.603Z,6.33
2019-04-22T22:01:28.863Z,7.08
2019-04-22T22:03:57.247Z,7.53
2019-04-22T22:06:13.905Z,7.37
2019-04-22T22:08:55.112Z,7.33
2019-04-22T22:11:13.844Z,7.40
2019-04-22T22:13:45.413Z,8.20
2019-04-22T22:16:10.326Z,7.17
2019-04-22T22:18:41.957Z,8.70
2019-04-22T22:21:33.646Z,10.00
2019-04-22T22:23:44.037Z,9.83
2019-04-22T22:26:08.559Z,10.45
2019-04-22T22:28:52.033Z,9.18
2019-04-22T22:31:15.489Z,8.30
2019-04-22T22:33:43.411Z,8.18
2019-04-22T22:36:04.998Z,9.00
2019-04-22T22:38:29.796Z,8.88
2019-04-22T22:40:45.910Z,8.55
2019-04-22T22:43:22.643Z,8.70
2019-04-22T22:45:54.484Z,7.65
2019-04-22T22:48:33.759Z,7.50
2019-04-22T22:51:02.109Z,6.95
2019-04-22T22:53:38.678Z,5.90
2019-04-22T22:56:00.459Z,5.08
2019-04-22T22:58:29.216Z,4.78
2019-04-22T23:00:56.181Z,4.60
2019-04-22T23:06:06.254Z,6.60
2019-04-22T23:08:34.400Z,7.22
2019-04-22T23:11:00.751Z,8.33
2019-04-22T23:13:33.494Z,7.75
2019-04-22T23:15:50.889Z,7.35
2019-04-22T23:18:05.906Z,5.80
2019-04-22T23:20:38.211Z,6.35
2019-04-22T23:23:23.918Z,5.50
2019-04-22T23:25:54.704Z,6.00
2019-04-22T23:28:19.258Z,4.83
2019-04-22T23:30:57.197Z,5.45
2019-04-22T23:33:42.438Z,5.15
2019-04-22T23:36:08.687Z,6.17
2019-04-22T23:38:53.688Z,5.58
2019-04-22T23:41:42.430Z,6.20
2019-04-22T23:44:11.448Z,6.08
2019-04-22T23:46:41.459Z,6.67
2019-04-22T23:49:08.768Z,6.87
2019-04-22T23:51:51.431Z,6.22
2019-04-22T23:54:12.974Z,6.37
2019-04-22T23:56:38.155Z,9.30
2019-04-22T23:59:14.911Z,7.17
